Saint Louis, Missouri
Traffic Map
Current Weather Conditions
Saint Louis, Missouri
Overcast
Overcast
13°
Feels Like: 13°
Wind Chill: 13° Ceiling: 1200
Heat Index: 13° Visibility: 10mi
Dew Point: 12° Wind: 13mph
Humidity: 93% Direction: 290° (WNW)
Pressure: 29.71in Gusts: 21mph
Raw Report DataKCPS 250712Z AUTO 29011G18KT 10SM BKN012 BKN017 OVC023 13/12 A2971 RMK AO2 T01330122
Traffic Incident Summary
Active as of:
Severity:
Category:
InformationThere was an issue retrieving the traffic information for this location. Please try a different location or try again shortly.
Advertisements
At Last! Intellicast now available for iPhone and Android